createdAt,value
2022-10-26T00:01:07.478Z,5.80
2022-10-26T00:03:35.955Z,6.00
2022-10-26T00:06:05.973Z,5.00
2022-10-26T00:08:35.348Z,5.00
2022-10-26T00:11:03.489Z,5.00
2022-10-26T00:13:31.504Z,4.00
2022-10-26T00:18:28.544Z,4.00
2022-10-26T00:20:56.587Z,4.00
2022-10-26T00:23:24.610Z,3.50
2022-10-26T00:25:57.425Z,5.00
2022-10-26T00:28:25.502Z,3.00
2022-10-26T00:30:53.586Z,5.40
2022-10-26T00:33:21.640Z,4.00
2022-10-26T00:35:50.084Z,5.00
2022-10-26T00:38:18.093Z,5.00
2022-10-26T00:40:46.163Z,8.00
2022-10-26T00:43:36.797Z,8.75
2022-10-26T00:46:06.087Z,7.20
2022-10-26T00:48:35.776Z,6.00
2022-10-26T00:51:05.588Z,8.75
2022-10-26T00:53:33.734Z,7.00
2022-10-26T00:56:01.817Z,6.00
2022-10-26T00:58:29.954Z,8.40
2022-10-26T01:00:59.354Z,9.40
2022-10-26T01:03:28.247Z,11.00
2022-10-26T01:05:57.945Z,8.40
2022-10-26T01:08:28.158Z,12.00
2022-10-26T01:10:56.281Z,8.00
2022-10-26T01:13:24.289Z,10.00
2022-10-26T01:15:55.801Z,9.00
2022-10-26T01:18:28.926Z,7.60
2022-10-26T01:21:31.913Z,6.60
2022-10-26T01:24:15.343Z,5.00
2022-10-26T01:26:55.111Z,6.40
2022-10-26T01:29:56.713Z,6.00
2022-10-26T01:32:28.580Z,10.60
2022-10-26T01:34:58.374Z,10.60
2022-10-26T01:37:27.965Z,8.00
2022-10-26T01:39:57.955Z,8.60
2022-10-26T01:42:26.018Z,9.50
2022-10-26T01:44:54.646Z,9.60
2022-10-26T01:47:22.688Z,8.40
2022-10-26T01:49:53.988Z,8.00
2022-10-26T01:52:22.071Z,5.00
2022-10-26T01:54:50.083Z,5.60
2022-10-26T01:57:19.280Z,5.60
2022-10-26T01:59:55.202Z,6.00
2022-10-26T02:02:45.214Z,6.00
2022-10-26T02:05:34.549Z,7.00
2022-10-26T02:08:15.829Z,5.00
2022-10-26T02:10:50.488Z,5.50
2022-10-26T02:13:21.683Z,9.00
2022-10-26T02:15:52.270Z,6.00
2022-10-26T02:18:24.103Z,8.00
2022-10-26T02:20:55.770Z,5.00
2022-10-26T02:23:23.940Z,6.00
2022-10-26T02:25:53.097Z,6.00
2022-10-26T02:28:23.858Z,7.60
2022-10-26T02:30:53.600Z,6.00
2022-10-26T02:33:21.614Z,4.00
2022-10-26T02:35:51.582Z,5.00
2022-10-26T02:38:21.088Z,3.00
2022-10-26T02:40:49.380Z,4.00
2022-10-26T02:43:22.051Z,5.00
2022-10-26T02:45:52.412Z,4.00
2022-10-26T02:48:20.457Z,4.00
2022-10-26T02:50:53.045Z,4.00
2022-10-26T02:53:25.528Z,4.25
2022-10-26T02:55:53.568Z,4.00
2022-10-26T02:58:24.071Z,5.00
2022-10-26T03:00:52.202Z,4.75
2022-10-26T03:03:20.218Z,6.00
2022-10-26T03:05:48.308Z,5.00
2022-10-26T03:08:16.390Z,6.67
2022-10-26T03:10:46.375Z,6.00
2022-10-26T03:13:14.686Z,8.00
2022-10-26T03:15:42.835Z,11.40
2022-10-26T03:18:10.855Z,5.60
2022-10-26T03:20:38.893Z,3.33
2022-10-26T03:23:06.904Z,5.50
2022-10-26T03:25:34.941Z,6.00
2022-10-26T03:28:05.154Z,5.00
2022-10-26T03:30:33.202Z,4.80
2022-10-26T03:33:01.213Z,5.60
2022-10-26T03:35:29.260Z,6.00
2022-10-26T03:37:57.635Z,6.80
2022-10-26T03:40:25.757Z,5.00
2022-10-26T03:42:53.769Z,3.40
2022-10-26T03:45:23.162Z,3.00
2022-10-26T03:47:51.237Z,5.20
2022-10-26T03:50:20.960Z,5.00
2022-10-26T03:52:49.625Z,5.50
2022-10-26T03:55:19.441Z,5.50
2022-10-26T03:57:47.549Z,4.50
2022-10-26T04:00:16.754Z,4.00
2022-10-26T04:02:48.714Z,4.00
2022-10-26T04:05:17.158Z,6.00
2022-10-26T04:07:45.173Z,6.00
2022-10-26T04:10:13.214Z,5.00
2022-10-26T04:12:41.226Z,4.00
2022-10-26T04:15:10.254Z,5.80
2022-10-26T04:17:38.274Z,9.00
2022-10-26T04:20:09.325Z,4.20
2022-10-26T04:22:37.331Z,4.00
2022-10-26T04:25:05.515Z,8.20
2022-10-26T04:27:33.552Z,5.00
2022-10-26T04:30:01.593Z,6.25
2022-10-26T04:32:29.606Z,5.00
2022-10-26T04:34:57.656Z,8.00
2022-10-26T04:37:27.022Z,6.00
2022-10-26T04:39:55.120Z,7.60
2022-10-26T04:42:23.191Z,5.00
2022-10-26T04:44:51.237Z,8.00
2022-10-26T04:47:19.245Z,9.60
2022-10-26T04:49:47.273Z,5.00
2022-10-26T04:52:15.305Z,5.00
2022-10-26T04:54:44.672Z,7.60
2022-10-26T04:57:12.717Z,6.00
2022-10-26T04:59:40.731Z,6.40
2022-10-26T05:02:08.860Z,5.00
2022-10-26T05:04:36.935Z,8.75
2022-10-26T05:07:04.964Z,3.00
2022-10-26T05:09:32.977Z,8.00
2022-10-26T05:12:02.366Z,5.00
2022-10-26T05:14:30.380Z,5.00
2022-10-26T05:16:58.426Z,5.25
2022-10-26T05:19:26.443Z,4.50
2022-10-26T05:21:54.487Z,5.00
2022-10-26T05:24:22.500Z,6.00
2022-10-26T05:26:50.535Z,4.00
2022-10-26T05:29:19.901Z,5.00
2022-10-26T05:31:47.952Z,4.80
2022-10-26T05:34:15.965Z,4.00
2022-10-26T05:36:44.005Z,4.00
2022-10-26T05:39:12.018Z,4.00
2022-10-26T05:41:40.056Z,4.40
2022-10-26T05:44:08.060Z,6.00
2022-10-26T05:46:37.503Z,4.50
2022-10-26T05:49:05.554Z,5.00
2022-10-26T05:51:34.441Z,4.50
2022-10-26T05:54:02.597Z,4.20
2022-10-26T05:56:36.197Z,2.50
2022-10-26T05:59:04.796Z,7.50
2022-10-26T06:01:38.972Z,4.00
2022-10-26T06:04:19.534Z,9.00
2022-10-26T06:06:48.368Z,7.00
2022-10-26T06:09:16.919Z,7.50
2022-10-26T06:11:45.453Z,7.60
2022-10-26T06:14:14.079Z,10.00
2022-10-26T06:16:55.305Z,10.00
2022-10-26T06:19:28.969Z,13.60
2022-10-26T06:22:04.334Z,9.80
2022-10-26T06:24:36.332Z,10.00
2022-10-26T06:27:05.641Z,10.75
2022-10-26T06:29:40.046Z,11.00
2022-10-26T06:32:10.066Z,9.20
2022-10-26T06:34:38.207Z,11.00
2022-10-26T06:37:06.317Z,13.20
2022-10-26T06:39:39.166Z,12.40
2022-10-26T06:42:07.807Z,12.40
2022-10-26T06:44:36.686Z,12.40
2022-10-26T06:47:07.234Z,10.80
2022-10-26T06:49:38.127Z,10.00
2022-10-26T06:52:10.739Z,11.00
2022-10-26T06:54:46.958Z,10.50
2022-10-26T06:57:16.328Z,15.00
2022-10-26T06:59:45.692Z,15.00
2022-10-26T07:02:14.803Z,10.00
2022-10-26T07:04:44.440Z,11.40
2022-10-26T07:07:13.287Z,9.20
2022-10-26T07:09:41.309Z,11.00
2022-10-26T07:12:09.432Z,15.00
2022-10-26T07:14:37.452Z,11.00
2022-10-26T07:17:06.107Z,12.60
2022-10-26T07:19:34.126Z,17.75
2022-10-26T07:22:03.576Z,10.00
2022-10-26T07:24:31.612Z,11.60
2022-10-26T07:26:59.929Z,10.00
2022-10-26T07:29:28.150Z,13.00
2022-10-26T07:31:56.195Z,12.40
2022-10-26T07:34:24.267Z,18.20
2022-10-26T07:36:52.608Z,11.00
2022-10-26T07:39:21.972Z,11.00
2022-10-26T07:41:50.012Z,14.60
2022-10-26T07:44:18.029Z,13.00
2022-10-26T07:46:46.112Z,12.00
2022-10-26T07:49:16.335Z,12.75
2022-10-26T07:51:47.293Z,14.00
2022-10-26T07:54:15.301Z,14.33
2022-10-26T07:56:44.710Z,14.00
2022-10-26T07:59:13.212Z,18.50
2022-10-26T08:01:41.446Z,20.00
2022-10-26T08:04:09.524Z,16.00
2022-10-26T08:06:37.585Z,20.75
2022-10-26T08:09:05.777Z,19.20
2022-10-26T08:11:33.825Z,20.00
2022-10-26T08:14:03.201Z,17.00
2022-10-26T08:16:31.354Z,21.20
2022-10-26T08:18:59.369Z,22.00
2022-10-26T08:21:39.262Z,21.50
2022-10-26T08:24:08.429Z,28.00
2022-10-26T08:26:36.499Z,22.25
2022-10-26T08:29:05.877Z,17.25
2022-10-26T08:31:34.306Z,21.00
2022-10-26T08:34:04.093Z,19.75
2022-10-26T08:36:32.132Z,25.00
2022-10-26T08:41:37.902Z,35.25
2022-10-26T08:44:12.002Z,31.00
2022-10-26T08:46:41.536Z,24.00
2022-10-26T08:49:17.182Z,27.00
2022-10-26T08:51:45.247Z,28.80
2022-10-26T08:54:15.018Z,21.00
2022-10-26T08:56:47.154Z,23.00
2022-10-26T08:59:32.034Z,21.60
2022-10-26T09:02:02.050Z,24.25
2022-10-26T09:04:31.246Z,21.60
2022-10-26T09:07:02.899Z,21.00
2022-10-26T09:09:35.924Z,19.80
2022-10-26T09:12:06.473Z,20.00
2022-10-26T09:14:40.677Z,16.00
2022-10-26T09:17:13.110Z,20.00
2022-10-26T09:19:59.303Z,20.00
2022-10-26T09:22:29.958Z,23.80
2022-10-26T09:24:58.028Z,18.40
2022-10-26T09:27:27.868Z,18.00
2022-10-26T09:29:57.665Z,19.40
2022-10-26T09:32:27.653Z,17.50
2022-10-26T09:34:57.475Z,19.00
2022-10-26T09:37:26.860Z,21.50
2022-10-26T09:39:59.593Z,17.00
2022-10-26T09:42:30.308Z,23.00
2022-10-26T09:45:01.241Z,22.25
2022-10-26T09:47:34.903Z,17.00
2022-10-26T09:50:08.557Z,22.00
2022-10-26T09:52:36.633Z,18.00
2022-10-26T09:55:04.818Z,22.40
2022-10-26T09:57:32.870Z,13.80
2022-10-26T10:00:02.623Z,14.40
2022-10-26T10:02:36.863Z,16.60
2022-10-26T10:05:27.169Z,16.00
2022-10-26T10:08:17.902Z,14.25
2022-10-26T10:10:56.213Z,14.00
2022-10-26T10:13:24.935Z,11.80
2022-10-26T10:15:55.538Z,12.00
2022-10-26T10:18:23.971Z,11.40
2022-10-26T10:20:53.391Z,18.25
2022-10-26T10:23:30.082Z,13.00
2022-10-26T10:26:08.939Z,14.50
2022-10-26T10:28:36.958Z,11.40
2022-10-26T10:31:07.212Z,10.25
2022-10-26T10:33:36.870Z,14.00
2022-10-26T10:36:07.295Z,13.60
2022-10-26T10:38:38.949Z,16.50
2022-10-26T10:41:06.994Z,13.40
2022-10-26T10:43:35.041Z,11.50
2022-10-26T10:46:03.036Z,12.20
2022-10-26T10:48:34.572Z,11.25
2022-10-26T10:51:12.373Z,11.80
2022-10-26T10:53:47.085Z,12.00
2022-10-26T10:56:22.437Z,12.00
2022-10-26T10:58:57.239Z,11.50
2022-10-26T11:01:26.457Z,14.25
2022-10-26T11:04:04.594Z,14.20
2022-10-26T11:06:32.678Z,11.25
2022-10-26T11:09:03.132Z,11.60
2022-10-26T11:11:33.429Z,13.25
2022-10-26T11:14:03.667Z,15.00
2022-10-26T11:16:33.290Z,13.00
2022-10-26T11:19:05.843Z,9.75
2022-10-26T11:21:36.979Z,9.60
2022-10-26T11:24:15.913Z,14.60
2022-10-26T11:26:49.888Z,10.60
2022-10-26T11:29:22.264Z,12.00
2022-10-26T11:31:54.598Z,17.00
2022-10-26T11:34:27.222Z,9.40
2022-10-26T11:36:57.868Z,10.60
2022-10-26T11:39:30.152Z,11.00
2022-10-26T11:42:02.124Z,9.40
2022-10-26T11:44:31.710Z,9.80
2022-10-26T11:47:02.519Z,10.40
2022-10-26T11:49:34.744Z,8.40
2022-10-26T11:52:05.412Z,8.00
2022-10-26T11:54:35.582Z,8.00
2022-10-26T11:57:03.666Z,8.00
2022-10-26T11:59:33.484Z,7.20
2022-10-26T12:02:03.682Z,6.00
2022-10-26T12:04:33.968Z,8.75
2022-10-26T12:07:02.649Z,6.00
2022-10-26T12:09:35.563Z,7.50
2022-10-26T12:12:07.684Z,6.50
2022-10-26T12:14:39.284Z,7.00
2022-10-26T12:17:08.535Z,4.60
2022-10-26T12:19:40.992Z,5.40
2022-10-26T12:22:10.587Z,7.00
2022-10-26T12:24:40.989Z,5.00
2022-10-26T12:27:30.033Z,17.00
2022-10-26T12:30:16.667Z,14.20
2022-10-26T12:32:54.408Z,8.00
2022-10-26T12:35:43.323Z,8.40
2022-10-26T12:39:02.367Z,8.20
2022-10-26T12:41:30.586Z,7.00
2022-10-26T12:44:01.323Z,7.20
2022-10-26T12:46:40.072Z,6.60
2022-10-26T12:49:41.335Z,9.40
2022-10-26T12:52:34.123Z,6.40
2022-10-26T12:55:37.759Z,6.00
2022-10-26T12:58:25.082Z,7.00
2022-10-26T13:01:08.880Z,8.00
2022-10-26T13:03:39.454Z,7.00
2022-10-26T13:06:35.406Z,7.00
2022-10-26T13:11:45.340Z,8.00
2022-10-26T13:14:20.156Z,7.00
2022-10-26T13:16:48.597Z,6.50
2022-10-26T13:19:27.269Z,8.00
2022-10-26T13:21:55.318Z,11.00
2022-10-26T13:24:25.470Z,7.20
2022-10-26T13:27:41.292Z,7.00
2022-10-26T13:30:22.754Z,6.60
2022-10-26T13:32:51.650Z,6.00
2022-10-26T13:35:19.691Z,6.25
2022-10-26T13:37:49.228Z,10.00
2022-10-26T13:40:19.685Z,9.00
2022-10-26T13:42:49.352Z,7.00
2022-10-26T13:45:19.612Z,5.50
2022-10-26T13:47:50.780Z,7.00
2022-10-26T13:50:20.317Z,7.00
2022-10-26T13:52:50.207Z,7.00
2022-10-26T13:55:21.833Z,8.00
2022-10-26T13:57:56.707Z,7.60
2022-10-26T14:00:24.766Z,5.50
2022-10-26T14:02:53.195Z,7.00
2022-10-26T14:05:21.415Z,7.00
2022-10-26T14:07:54.019Z,7.20
2022-10-26T14:10:28.084Z,6.00
2022-10-26T14:12:56.159Z,6.60
2022-10-26T14:15:25.292Z,6.00
2022-10-26T14:17:53.517Z,8.00
2022-10-26T14:20:22.878Z,6.25
2022-10-26T14:22:50.996Z,7.60
2022-10-26T14:25:26.656Z,4.25
2022-10-26T14:28:21.615Z,6.00
2022-10-26T14:30:51.320Z,6.00
2022-10-26T14:33:20.385Z,5.00
2022-10-26T14:35:48.538Z,6.00
2022-10-26T14:38:18.795Z,6.00
2022-10-26T14:40:46.850Z,7.40
2022-10-26T14:43:19.224Z,5.00
2022-10-26T14:45:49.928Z,7.00
2022-10-26T14:48:23.827Z,5.00
2022-10-26T14:51:02.164Z,5.25
2022-10-26T14:53:36.146Z,5.00
2022-10-26T14:56:05.053Z,5.00
2022-10-26T14:58:35.340Z,5.00
2022-10-26T15:01:30.355Z,8.20
2022-10-26T15:04:02.644Z,5.60
2022-10-26T15:06:37.025Z,5.00
2022-10-26T15:09:06.838Z,5.40
2022-10-26T15:11:35.597Z,7.25
2022-10-26T15:14:04.971Z,5.75
2022-10-26T15:16:34.458Z,8.60
2022-10-26T15:19:07.932Z,6.20
2022-10-26T15:21:36.907Z,8.00
2022-10-26T15:24:05.301Z,9.50
2022-10-26T15:26:33.341Z,7.00
2022-10-26T15:29:01.356Z,6.00
2022-10-26T15:31:33.189Z,8.00
2022-10-26T15:34:14.674Z,9.00
2022-10-26T15:36:43.513Z,8.00
2022-10-26T15:39:11.713Z,12.00
2022-10-26T15:41:42.941Z,9.00
2022-10-26T15:44:14.567Z,9.00
2022-10-26T15:46:43.967Z,11.40
2022-10-26T15:49:16.606Z,9.60
2022-10-26T15:51:46.266Z,12.20
2022-10-26T15:54:14.325Z,8.00
2022-10-26T15:56:43.802Z,8.00
2022-10-26T15:59:16.090Z,8.00
2022-10-26T16:01:45.577Z,7.00
2022-10-26T16:04:13.847Z,9.00
2022-10-26T16:06:42.640Z,8.50
2022-10-26T16:09:13.462Z,7.00
2022-10-26T16:11:41.483Z,7.80
2022-10-26T16:14:10.178Z,9.00
2022-10-26T16:16:39.026Z,6.00
2022-10-26T16:22:01.695Z,6.00
2022-10-26T16:24:29.875Z,8.00
2022-10-26T16:26:57.953Z,11.00
2022-10-26T16:29:26.018Z,10.00
2022-10-26T16:31:54.038Z,9.40
2022-10-26T16:34:23.441Z,9.00
2022-10-26T16:36:51.452Z,10.40
2022-10-26T16:39:19.500Z,12.00
2022-10-26T16:41:49.881Z,9.60
2022-10-26T16:44:17.916Z,9.50
2022-10-26T16:46:45.937Z,9.80
2022-10-26T16:49:13.982Z,10.60
2022-10-26T16:51:43.349Z,9.00
2022-10-26T16:54:11.387Z,12.25
2022-10-26T16:56:39.396Z,10.50
2022-10-26T16:59:07.425Z,12.00
2022-10-26T17:01:36.048Z,8.00
2022-10-26T17:04:04.760Z,9.00
2022-10-26T17:06:32.773Z,11.00
2022-10-26T17:09:02.253Z,11.00
2022-10-26T17:11:30.297Z,11.00
2022-10-26T17:13:58.348Z,13.00
2022-10-26T17:16:26.538Z,14.25
2022-10-26T17:18:54.617Z,20.25
2022-10-26T17:21:29.498Z,11.50
2022-10-26T17:23:57.544Z,17.00
2022-10-26T17:26:26.920Z,15.50
2022-10-26T17:28:55.448Z,13.40
2022-10-26T17:31:23.652Z,13.00
2022-10-26T17:33:51.733Z,13.00
2022-10-26T17:36:20.993Z,15.75
2022-10-26T17:38:50.045Z,14.40
2022-10-26T17:41:18.634Z,15.00
2022-10-26T17:43:48.978Z,19.00
2022-10-26T17:46:17.765Z,16.40
2022-10-26T17:48:45.825Z,22.50
2022-10-26T17:51:14.800Z,15.40
2022-10-26T17:53:42.839Z,16.50
2022-10-26T17:56:12.461Z,15.50
2022-10-26T17:58:40.663Z,18.00
2022-10-26T18:01:16.003Z,16.80
2022-10-26T18:03:44.112Z,22.00
2022-10-26T18:06:12.137Z,14.80
2022-10-26T18:08:40.370Z,16.00
2022-10-26T18:11:08.662Z,17.40
2022-10-26T18:13:36.715Z,16.00
2022-10-26T18:16:05.760Z,17.40
2022-10-26T18:18:35.218Z,17.00
2022-10-26T18:21:03.473Z,18.00
2022-10-26T18:23:31.484Z,16.60
2022-10-26T18:26:08.359Z,16.00
2022-10-26T18:28:39.497Z,16.40
2022-10-26T18:31:08.248Z,20.00
2022-10-26T18:33:37.593Z,20.00
2022-10-26T18:36:06.746Z,20.00
2022-10-26T18:38:34.875Z,18.60
2022-10-26T18:41:03.036Z,17.60
2022-10-26T18:43:31.135Z,19.25
2022-10-26T18:46:05.773Z,19.00
2022-10-26T18:48:33.878Z,19.00
2022-10-26T18:51:06.991Z,16.00
2022-10-26T18:53:35.565Z,14.60
2022-10-26T18:56:03.830Z,18.00
2022-10-26T18:58:32.098Z,19.00
2022-10-26T19:01:07.722Z,16.00
2022-10-26T19:03:35.937Z,16.00
2022-10-26T19:06:12.235Z,14.75
2022-10-26T19:08:40.354Z,14.00
2022-10-26T19:11:09.260Z,15.00
2022-10-26T19:13:37.357Z,14.00
2022-10-26T19:16:12.589Z,15.00
2022-10-26T19:18:49.927Z,15.60
2022-10-26T19:21:20.496Z,16.25
2022-10-26T19:23:49.162Z,18.50
2022-10-26T19:26:17.877Z,21.75
2022-10-26T19:28:45.891Z,23.75
2022-10-26T19:31:14.538Z,22.00
2022-10-26T19:33:42.548Z,19.20
2022-10-26T19:36:12.588Z,20.00
2022-10-26T19:38:41.966Z,19.50
2022-10-26T19:41:11.663Z,21.20
2022-10-26T19:43:39.994Z,26.25
2022-10-26T19:46:09.166Z,24.80
2022-10-26T19:48:37.329Z,28.00
2022-10-26T19:51:05.632Z,22.00
2022-10-26T19:53:33.725Z,21.00
2022-10-26T19:56:03.278Z,20.20
2022-10-26T19:58:31.790Z,22.40
2022-10-26T20:01:00.167Z,25.00
2022-10-26T20:03:29.079Z,22.00
2022-10-26T20:05:57.839Z,19.50
2022-10-26T20:08:26.000Z,21.00
2022-10-26T20:10:54.422Z,19.50
2022-10-26T20:13:23.904Z,22.00
2022-10-26T20:15:52.207Z,20.00
2022-10-26T20:18:20.398Z,16.00
2022-10-26T20:20:48.442Z,19.00
2022-10-26T20:23:16.486Z,19.50
2022-10-26T20:25:46.348Z,16.50
2022-10-26T20:28:14.492Z,16.00
2022-10-26T20:30:44.318Z,18.00
2022-10-26T20:33:12.426Z,20.60
2022-10-26T20:35:40.652Z,15.00
2022-10-26T20:38:09.152Z,16.50
2022-10-26T20:40:38.072Z,16.25
2022-10-26T20:43:06.640Z,15.00
2022-10-26T20:45:35.203Z,16.75
2022-10-26T20:48:05.286Z,17.20
2022-10-26T20:50:34.326Z,16.00
2022-10-26T20:53:03.158Z,15.60
2022-10-26T20:55:34.960Z,15.00
2022-10-26T20:58:04.128Z,16.20
2022-10-26T21:00:32.887Z,16.00
2022-10-26T21:03:00.906Z,11.40
2022-10-26T21:05:33.995Z,9.00
2022-10-26T21:08:02.925Z,8.75
2022-10-26T21:10:32.087Z,10.00
2022-10-26T21:13:00.120Z,9.40
2022-10-26T21:15:28.157Z,9.00
2022-10-26T21:17:56.179Z,13.00
2022-10-26T21:20:24.222Z,23.20
2022-10-26T21:22:54.380Z,26.75
2022-10-26T21:25:22.426Z,29.60
2022-10-26T21:27:54.797Z,25.60
2022-10-26T21:30:22.898Z,18.60
2022-10-26T21:32:51.456Z,18.33
2022-10-26T21:35:19.608Z,17.75
2022-10-26T21:37:47.927Z,14.60
2022-10-26T21:40:17.679Z,16.50
2022-10-26T21:42:50.430Z,15.00
2022-10-26T21:45:18.632Z,13.50
2022-10-26T21:47:46.656Z,14.00
2022-10-26T21:50:14.731Z,14.50
2022-10-26T21:52:42.749Z,15.60
2022-10-26T21:55:12.564Z,13.00
2022-10-26T21:57:41.939Z,10.00
2022-10-26T22:00:10.959Z,13.00
2022-10-26T22:02:41.308Z,13.00
2022-10-26T22:05:09.517Z,10.00
2022-10-26T22:07:37.556Z,12.00
2022-10-26T22:10:13.920Z,12.00
2022-10-26T22:12:43.321Z,10.00
2022-10-26T22:15:11.812Z,12.00
2022-10-26T22:17:39.977Z,9.40
2022-10-26T22:20:09.623Z,8.60
2022-10-26T22:22:37.661Z,10.00
2022-10-26T22:25:07.078Z,11.40
2022-10-26T22:27:35.134Z,10.75
2022-10-26T22:30:04.774Z,10.00
2022-10-26T22:32:33.014Z,13.00
2022-10-26T22:37:49.062Z,13.20
2022-10-26T22:40:17.167Z,11.60
2022-10-26T22:42:45.212Z,11.00
2022-10-26T22:45:14.654Z,11.60
2022-10-26T22:47:42.708Z,13.50
2022-10-26T22:50:11.022Z,12.50
2022-10-26T22:52:39.066Z,13.50
2022-10-26T22:55:08.039Z,15.50
2022-10-26T22:57:36.121Z,14.00
2022-10-26T23:00:04.348Z,12.00
2022-10-26T23:02:33.756Z,12.00
2022-10-26T23:05:01.778Z,14.00
2022-10-26T23:07:30.620Z,15.00
2022-10-26T23:09:58.640Z,13.75
2022-10-26T23:12:26.673Z,13.20
2022-10-26T23:14:54.694Z,13.00
2022-10-26T23:17:22.738Z,13.00
2022-10-26T23:19:52.106Z,13.20
2022-10-26T23:22:20.149Z,13.00
2022-10-26T23:24:48.185Z,11.00
2022-10-26T23:27:16.217Z,12.00
2022-10-26T23:32:17.168Z,10.00
2022-10-26T23:34:45.182Z,16.00
2022-10-26T23:37:15.039Z,12.00
2022-10-26T23:39:43.045Z,9.60
2022-10-26T23:42:11.062Z,9.50
2022-10-26T23:44:39.100Z,8.40
2022-10-26T23:47:07.122Z,8.00
2022-10-26T23:49:35.171Z,8.00
2022-10-26T23:52:03.197Z,8.00
2022-10-26T23:54:32.597Z,8.00
2022-10-26T23:57:00.647Z,10.00
2022-10-26T23:59:28.664Z,11.00
